Time;durP1;ratioP1;P1;durP2;ratioP2;P2;SDS_P1;SDS_P2;PMS_P1;PMS_P2;Temp;Humidity;BMP_temperature;BMP_pressure;BME280_temperature;BME280_humidity;BME280_pressure;Samples;Min_cycle;Max_cycle;Signal;HPM_P1;HPM_P2
2022/10/27 00:00:29;;;;;;;;;;;;;;;28.93;31.24;101643.09;4976960;28;1133;-31
2022/10/27 00:02:54;;;;;;;;;;;;;;;28.90;31.14;101641.59;4976815;28;1150;-29
2022/10/27 00:05:21;;;;;;;;;;;;;;;28.81;31.35;101638.06;4976838;28;1146;-29
2022/10/27 00:07:46;;;;;;;;;;;;;;;28.80;31.33;101641.78;4976329;28;1169;-29
2022/10/27 00:10:12;;;;;;;;;;;;;;;28.70;31.48;101641.97;4976671;28;1959;-29
2022/10/27 00:12:37;;;;;;;;;;;;;;;28.72;31.12;101639.09;4990158;28;1227;-29
2022/10/27 00:15:02;;;;;;;;;;;;;;;28.58;31.36;101638.78;4976723;28;1208;-29
2022/10/27 00:17:27;;;;;;;;;;;;;;;28.69;31.31;101643.00;4976532;28;1185;-29
2022/10/27 00:19:53;;;;;;;;;;;;;;;28.70;31.24;101639.28;4976527;28;1153;-29
2022/10/27 00:22:18;;;;;;;;;;;;;;;28.59;31.60;101642.34;4976390;28;1232;-29
2022/10/27 00:24:43;;;;;;;;;;;;;;;28.50;31.64;101636.09;4976566;28;1134;-29
2022/10/27 00:27:09;;;;;;;;;;;;;;;28.46;31.82;101640.16;4977240;28;1118;-29
2022/10/27 00:29:34;;;;;;;;;;;;;;;28.57;31.23;101636.25;4980031;28;1949;-29
2022/10/27 00:31:59;;;;;;;;;;;;;;;28.46;31.80;101632.03;4980287;28;1158;-29
2022/10/27 00:34:25;;;;;;;;;;;;;;;28.50;31.64;101633.38;4979715;28;1257;-29
2022/10/27 00:36:50;;;;;;;;;;;;;;;28.42;31.70;101636.09;4979945;28;1180;-29
2022/10/27 00:39:15;;;;;;;;;;;;;;;28.56;31.17;101634.56;4979920;28;1169;-28
2022/10/27 00:41:41;;;;;;;;;;;;;;;28.57;31.29;101633.53;4979695;28;1134;-30
2022/10/27 00:44:24;;;;;;;;;;;;;;;28.38;31.59;101634.75;4979568;28;1161;-30
2022/10/27 00:46:50;;;;;;;;;;;;;;;28.33;31.78;101624.41;4979913;28;1109;-30
2022/10/27 00:49:18;;;;;;;;;;;;;;;28.46;31.36;101629.34;4979715;28;1890;-30
2022/10/27 00:51:47;;;;;;;;;;;;;;;28.25;31.77;101630.66;4962740;28;1237;-30
2022/10/27 00:54:13;;;;;;;;;;;;;;;28.37;31.42;101625.78;4962755;28;1170;-30
2022/10/27 00:56:38;;;;;;;;;;;;;;;28.28;31.52;101630.31;4962524;28;1166;-30
2022/10/27 00:59:04;;;;;;;;;;;;;;;28.15;31.96;101625.41;4978976;28;1153;-30
2022/10/27 01:01:29;;;;;;;;;;;;;;;28.19;31.83;101623.22;4962184;28;1186;-30
2022/10/27 01:03:54;;;;;;;;;;;;;;;28.17;31.92;101620.69;4962672;28;1150;-30
2022/10/27 01:06:19;;;;;;;;;;;;;;;28.22;31.94;101622.88;4962244;28;1213;-30
2022/10/27 01:08:45;;;;;;;;;;;;;;;28.13;31.92;101627.44;4961740;28;1890;-30
2022/10/27 01:11:10;;;;;;;;;;;;;;;28.09;31.65;101623.41;4968670;28;1157;-30
2022/10/27 01:13:35;;;;;;;;;;;;;;;28.13;31.69;101618.50;4986563;28;1149;-30
2022/10/27 01:16:16;;;;;;;;;;;;;;;28.04;31.79;101620.34;4979337;28;1188;-29
2022/10/27 01:18:52;;;;;;;;;;;;;;;27.96;31.90;101627.44;4978852;28;1192;-30
2022/10/27 01:21:35;;;;;;;;;;;;;;;28.07;31.94;101630.81;4966213;28;1102;-29
2022/10/27 01:24:19;;;;;;;;;;;;;;;28.01;31.96;101634.22;4962028;28;1397;-29
2022/10/27 01:26:48;;;;;;;;;;;;;;;28.05;31.85;101633.69;4978984;28;1165;-29
2022/10/27 01:29:20;;;;;;;;;;;;;;;27.87;31.78;101636.56;4961908;28;1906;-29
2022/10/27 01:31:57;;;;;;;;;;;;;;;27.94;31.81;101643.00;4978990;28;1050;-29
2022/10/27 01:34:31;;;;;;;;;;;;;;;27.92;32.17;101639.59;4978615;28;1153;-29
2022/10/27 01:37:04;;;;;;;;;;;;;;;27.97;31.82;101647.22;4961372;28;1189;-29
2022/10/27 01:39:58;;;;;;;;;;;;;;;27.94;31.70;101642.13;4960990;28;1145;-28
2022/10/27 01:42:26;;;;;;;;;;;;;;;27.98;31.87;101641.63;4969705;28;1398;-28
2022/10/27 01:44:52;;;;;;;;;;;;;;;27.93;32.01;101644.00;4978873;28;1169;-30
2022/10/27 01:47:17;;;;;;;;;;;;;;;27.98;31.54;101646.19;4961706;28;1142;-28
2022/10/27 01:49:42;;;;;;;;;;;;;;;27.86;32.14;101642.97;4978713;28;1959;-28
2022/10/27 01:52:28;;;;;;;;;;;;;;;27.87;31.67;101647.38;4978854;28;1212;-29
2022/10/27 01:54:54;;;;;;;;;;;;;;;27.82;31.85;101649.72;4964591;28;1887;-28
2022/10/27 01:57:31;;;;;;;;;;;;;;;27.78;31.85;101653.78;4961382;28;1146;-28
2022/10/27 02:00:00;;;;;;;;;;;;;;;27.77;32.16;101650.22;4961306;28;1177;-28
2022/10/27 02:02:44;;;;;;;;;;;;;;;27.83;31.98;101646.00;4961309;28;1153;-28
2022/10/27 02:05:20;;;;;;;;;;;;;;;27.80;32.14;101663.41;4978463;28;1149;-28
2022/10/27 02:08:03;;;;;;;;;;;;;;;27.68;31.96;101660.16;4961325;28;1035;-28
2022/10/27 02:10:34;;;;;;;;;;;;;;;27.75;31.83;101657.66;4979347;28;1898;-28
2022/10/27 02:12:59;;;;;;;;;;;;;;;27.70;32.11;101660.84;4972827;28;1149;-28
2022/10/27 02:15:24;;;;;;;;;;;;;;;27.69;31.89;101661.00;4960936;28;1118;-29
2022/10/27 02:17:50;;;;;;;;;;;;;;;27.73;31.75;101670.47;4978494;28;1213;-29
2022/10/27 02:20:20;;;;;;;;;;;;;;;27.67;31.88;101658.44;4960936;28;971;-28
2022/10/27 02:22:45;;;;;;;;;;;;;;;27.79;31.71;101661.72;4961000;28;1122;-28
2022/10/27 02:25:10;;;;;;;;;;;;;;;27.66;32.16;101664.03;4961024;28;1178;-28
2022/10/27 02:27:37;;;;;;;;;;;;;;;27.59;32.27;101667.34;4978075;28;1086;-28
2022/10/27 02:30:02;;;;;;;;;;;;;;;27.58;32.40;101668.38;4978307;28;1899;-28
2022/10/27 02:32:28;;;;;;;;;;;;;;;27.58;32.40;101671.09;4960354;28;1137;-28
2022/10/27 02:34:54;;;;;;;;;;;;;;;27.58;32.19;101671.09;4978105;28;1086;-29
2022/10/27 02:37:28;;;;;;;;;;;;;;;27.62;31.99;101672.47;4977598;28;1228;-29
2022/10/27 02:39:53;;;;;;;;;;;;;;;27.58;32.01;101681.88;4977982;28;1224;-29
2022/10/27 02:42:19;;;;;;;;;;;;;;;27.62;32.16;101679.72;4977431;28;1240;-29
2022/10/27 02:44:44;;;;;;;;;;;;;;;27.65;31.91;101686.63;4977858;28;1225;-28
2022/10/27 02:47:09;;;;;;;;;;;;;;;27.67;32.15;101685.47;4977045;28;1534;-28
2022/10/27 02:49:35;;;;;;;;;;;;;;;27.53;33.10;101689.63;4979891;28;2264;-28
2022/10/27 02:52:03;;;;;;;;;;;;;;;27.36;33.61;101691.44;4996134;28;1927;-28
2022/10/27 02:54:28;;;;;;;;;;;;;;;27.37;33.53;101695.84;4979753;28;2050;-28
2022/10/27 02:56:54;;;;;;;;;;;;;;;27.26;32.99;101689.69;4979954;28;2117;-30
2022/10/27 02:59:19;;;;;;;;;;;;;;;27.41;33.17;101696.34;4983059;28;2006;-28
2022/10/27 03:01:45;;;;;;;;;;;;;;;27.16;32.97;101683.56;4983346;28;2315;-29
2022/10/27 03:04:10;;;;;;;;;;;;;;;26.78;33.00;101694.59;4978123;28;1831;-29
2022/10/27 03:06:35;;;;;;;;;;;;;;;26.71;33.17;101690.88;4976766;28;1435;-29
2022/10/27 03:09:01;;;;;;;;;;;;;;;26.67;33.08;101690.31;4976445;28;1952;-29
2022/10/27 03:11:26;;;;;;;;;;;;;;;26.67;32.79;101692.16;4976728;28;1230;-29
2022/10/27 03:13:51;;;;;;;;;;;;;;;26.64;32.82;101696.88;4976833;28;1288;-28
2022/10/27 03:16:17;;;;;;;;;;;;;;;26.67;32.41;101697.56;4976994;28;1244;-28
2022/10/27 03:18:42;;;;;;;;;;;;;;;26.62;32.69;101707.00;4977461;28;1253;-29
2022/10/27 03:21:07;;;;;;;;;;;;;;;26.63;32.97;101699.72;4976546;28;1233;-29
2022/10/27 03:23:32;;;;;;;;;;;;;;;26.64;32.34;101698.72;4977223;28;1157;-29
2022/10/27 03:25:59;;;;;;;;;;;;;;;26.63;32.76;101705.13;4977010;28;1180;-29
2022/10/27 03:28:24;;;;;;;;;;;;;;;26.58;32.66;101705.59;4976723;28;1078;-29
2022/10/27 03:30:49;;;;;;;;;;;;;;;26.62;32.85;101704.28;4977005;28;1910;-29
2022/10/27 03:33:15;;;;;;;;;;;;;;;26.59;32.74;101709.97;4982471;28;1951;-29
2022/10/27 03:35:40;;;;;;;;;;;;;;;26.57;32.45;101706.59;4969612;28;1406;-29
2022/10/27 03:38:05;;;;;;;;;;;;;;;26.49;32.28;101704.66;4976044;28;1198;-28
2022/10/27 03:40:31;;;;;;;;;;;;;;;26.37;32.72;101709.47;4976679;28;1269;-29
2022/10/27 03:42:57;;;;;;;;;;;;;;;26.32;32.51;101710.91;4976639;28;1098;-29
2022/10/27 03:45:25;;;;;;;;;;;;;;;26.31;32.88;101710.03;4976400;28;1288;-29
2022/10/27 03:48:00;;;;;;;;;;;;;;;26.34;32.99;101712.47;4976761;28;1257;-28
2022/10/27 03:50:26;;;;;;;;;;;;;;;26.04;33.03;101711.81;4976456;28;1906;-29
2022/10/27 03:52:51;;;;;;;;;;;;;;;26.06;33.21;101708.97;4976825;28;1284;-29
2022/10/27 03:55:16;;;;;;;;;;;;;;;26.03;33.10;101712.81;4977024;28;1149;-29
2022/10/27 03:57:41;;;;;;;;;;;;;;;25.90;33.22;101710.47;4976478;28;1320;-29
2022/10/27 04:00:07;;;;;;;;;;;;;;;26.04;33.48;101712.66;4976512;28;1193;-29
2022/10/27 04:02:32;;;;;;;;;;;;;;;26.22;33.09;101711.84;4978784;28;1437;-30
2022/10/27 04:04:58;;;;;;;;;;;;;;;26.20;33.34;101715.66;4978981;28;2564;-29
2022/10/27 04:07:23;;;;;;;;;;;;;;;26.20;33.31;101719.22;4967533;28;1299;-28
2022/10/27 04:09:48;;;;;;;;;;;;;;;26.19;33.27;101724.78;4981183;28;1965;-29
2022/10/27 04:12:14;;;;;;;;;;;;;;;26.20;33.93;101723.75;4979927;28;1129;-28
2022/10/27 04:14:39;;;;;;;;;;;;;;;26.23;33.67;101731.53;4980277;28;1153;-28
2022/10/27 04:17:04;;;;;;;;;;;;;;;26.32;33.47;101730.63;4962876;28;1118;-28
2022/10/27 04:19:29;;;;;;;;;;;;;;;26.37;33.91;101732.91;4979988;28;1022;-27
2022/10/27 04:21:55;;;;;;;;;;;;;;;26.49;33.67;101731.66;4980242;28;1205;-28
2022/10/27 04:24:21;;;;;;;;;;;;;;;26.50;33.61;101735.19;4980116;28;1232;-28
2022/10/27 04:26:46;;;;;;;;;;;;;;;26.58;33.22;101732.56;4980283;28;1094;-29
2022/10/27 04:29:11;;;;;;;;;;;;;;;26.59;33.58;101731.56;4979718;28;1950;-29
2022/10/27 04:31:37;;;;;;;;;;;;;;;26.53;33.22;101729.50;4985921;28;1184;-29
2022/10/27 04:34:02;;;;;;;;;;;;;;;26.57;33.30;101730.03;4969365;28;2460;-28
2022/10/27 04:36:27;;;;;;;;;;;;;;;26.43;33.42;101739.50;4980078;28;1182;-29
2022/10/27 04:38:53;;;;;;;;;;;;;;;26.43;33.56;101737.66;4980122;28;1145;-30
2022/10/27 04:41:18;;;;;;;;;;;;;;;26.40;33.44;101749.63;4979624;28;1109;-28
2022/10/27 04:43:47;;;;;;;;;;;;;;;26.36;33.38;101747.41;4985740;28;1153;-29
2022/10/27 04:46:12;;;;;;;;;;;;;;;26.50;33.29;101760.34;4966598;28;1395;-30
2022/10/27 04:48:37;;;;;;;;;;;;;;;26.38;33.10;101762.41;4979641;28;1983;-29
2022/10/27 04:51:03;;;;;;;;;;;;;;;26.50;32.68;101764.88;4979657;28;1110;-29
2022/10/27 04:53:28;;;;;;;;;;;;;;;26.40;32.89;101773.06;4979960;28;1169;-30
2022/10/27 04:55:53;;;;;;;;;;;;;;;26.23;33.01;101786.34;4985806;28;1125;-29
2022/10/27 04:58:19;;;;;;;;;;;;;;;26.19;33.20;101793.03;4982390;28;1144;-30
2022/10/27 05:00:44;;;;;;;;;;;;;;;26.22;33.19;101786.50;4979451;28;1118;-30
2022/10/27 05:03:09;;;;;;;;;;;;;;;26.20;32.80;101783.09;4978927;28;2524;-29
2022/10/27 05:05:35;;;;;;;;;;;;;;;26.14;32.83;101790.78;4979796;28;1239;-28
2022/10/27 05:08:00;;;;;;;;;;;;;;;26.15;32.85;101784.41;4985524;28;1211;-29
2022/10/27 05:10:26;;;;;;;;;;;;;;;24.78;33.59;101800.75;4980210;28;1899;-28
2022/10/27 05:12:51;;;;;;;;;;;;;;;24.49;34.18;101795.38;4978572;28;1165;-28
2022/10/27 05:15:16;;;;;;;;;;;;;;;24.58;34.17;101794.50;4979274;28;1220;-30
2022/10/27 05:17:42;;;;;;;;;;;;;;;24.44;34.93;101810.06;4978885;28;1224;-29
2022/10/27 05:20:07;;;;;;;;;;;;;;;24.39;35.30;101801.56;4985400;28;1109;-29
2022/10/27 05:22:33;;;;;;;;;;;;;;;24.67;35.01;101803.59;4981978;28;1246;-28
2022/10/27 05:24:58;;;;;;;;;;;;;;;24.80;34.66;101806.00;4979218;28;1168;-29
2022/10/27 05:27:23;;;;;;;;;;;;;;;24.80;34.99;101809.56;4978695;28;1561;-29
2022/10/27 05:29:48;;;;;;;;;;;;;;;24.80;34.77;101816.75;4979102;28;1898;-29
2022/10/27 05:32:14;;;;;;;;;;;;;;;24.65;34.82;101825.25;4985314;28;1208;-29
2022/10/27 05:34:39;;;;;;;;;;;;;;;24.67;35.43;101830.50;4980737;28;2487;-29
2022/10/27 05:37:04;;;;;;;;;;;;;;;24.81;34.59;101838.16;4979009;28;1212;-29
2022/10/27 05:39:30;;;;;;;;;;;;;;;24.72;34.63;101839.00;4979117;28;1173;-29
2022/10/27 05:41:55;;;;;;;;;;;;;;;24.72;34.92;101841.69;4978611;28;1169;-29
2022/10/27 05:44:20;;;;;;;;;;;;;;;24.86;34.66;101844.97;4985175;28;1212;-28
2022/10/27 05:46:45;;;;;;;;;;;;;;;25.02;34.61;101852.50;4965255;28;1015;-29
2022/10/27 05:49:11;;;;;;;;;;;;;;;24.65;35.12;101848.59;4978510;28;1898;-28
2022/10/27 05:51:36;;;;;;;;;;;;;;;24.54;35.41;101846.91;4978458;28;1146;-28
2022/10/27 05:54:01;;;;;;;;;;;;;;;24.62;35.27;101844.38;4961386;28;1114;-28
2022/10/27 05:56:27;;;;;;;;;;;;;;;24.87;35.00;101860.09;4984181;28;1161;-28
2022/10/27 05:58:52;;;;;;;;;;;;;;;24.46;35.52;101851.13;4978883;28;1201;-28
2022/10/27 06:01:18;;;;;;;;;;;;;;;24.76;35.10;101863.75;4978748;28;1129;-29
2022/10/27 06:03:43;;;;;;;;;;;;;;;25.05;35.02;101860.28;4978548;28;1126;-31
2022/10/27 06:06:08;;;;;;;;;;;;;;;25.37;34.06;101869.06;4978531;28;1165;-29
2022/10/27 06:08:34;;;;;;;;;;;;;;;25.68;33.28;101867.03;4981857;28;1890;-30
2022/10/27 06:11:00;;;;;;;;;;;;;;;25.60;33.55;101880.34;4978861;28;1216;-30
2022/10/27 06:13:25;;;;;;;;;;;;;;;25.26;32.03;101876.28;4978213;28;1153;-31
2022/10/27 06:15:50;;;;;;;;;;;;;;;25.06;32.80;101870.06;4978711;28;1122;-31
2022/10/27 06:18:16;;;;;;;;;;;;;;;25.02;33.83;101884.81;4978279;28;1220;-30
2022/10/27 06:20:42;;;;;;;;;;;;;;;24.93;33.20;101884.66;4984431;28;1189;-31
2022/10/27 06:23:07;;;;;;;;;;;;;;;25.02;32.96;101882.13;4978022;28;1221;-30
2022/10/27 06:25:32;;;;;;;;;;;;;;;25.50;32.76;101887.59;4978264;28;1110;-29
2022/10/27 06:27:58;;;;;;;;;;;;;;;25.75;32.73;101886.16;4977948;28;1201;-29
2022/10/27 06:30:23;;;;;;;;;;;;;;;25.79;33.06;101892.13;4978029;28;1902;-30
2022/10/27 06:32:48;;;;;;;;;;;;;;;25.93;32.58;101896.19;4982836;28;1200;-29
2022/10/27 06:35:13;;;;;;;;;;;;;;;25.98;32.78;101896.59;4977817;28;1137;-30
2022/10/27 06:37:39;;;;;;;;;;;;;;;25.88;32.71;101893.06;4978313;28;1126;-30
2022/10/27 06:40:05;;;;;;;;;;;;;;;25.90;32.82;101896.47;4977676;28;1157;-29
2022/10/27 06:42:31;;;;;;;;;;;;;;;25.97;32.62;101896.75;4978002;28;1177;-28
2022/10/27 06:44:56;;;;;;;;;;;;;;;25.94;32.75;101897.91;4978120;28;1173;-29
2022/10/27 06:47:21;;;;;;;;;;;;;;;25.92;32.72;101903.41;4977511;28;1208;-30
2022/10/27 06:49:47;;;;;;;;;;;;;;;25.97;32.35;101900.28;4977139;28;1955;-29
2022/10/27 06:52:12;;;;;;;;;;;;;;;26.02;32.72;101898.00;4978037;28;1243;-30
2022/10/27 06:54:37;;;;;;;;;;;;;;;26.04;32.61;101903.25;4978267;28;1157;-30
2022/10/27 06:57:03;;;;;;;;;;;;;;;26.01;32.75;101892.75;4977892;28;878;-30
2022/10/27 06:59:28;;;;;;;;;;;;;;;25.96;32.91;101895.06;4977493;28;1165;-29
2022/10/27 07:01:53;;;;;;;;;;;;;;;25.97;32.86;101900.28;4977333;28;1130;-30
2022/10/27 07:04:18;;;;;;;;;;;;;;;26.02;32.78;101898.00;4977561;28;1153;-30
2022/10/27 07:06:44;;;;;;;;;;;;;;;26.04;32.06;101897.88;4977286;28;1146;-30
2022/10/27 07:09:10;;;;;;;;;;;;;;;26.09;32.84;101903.63;4977111;28;1898;-30
2022/10/27 07:11:35;;;;;;;;;;;;;;;26.07;32.85;101904.78;4977188;28;1228;-30
2022/10/27 07:14:01;;;;;;;;;;;;;;;25.99;32.85;101903.66;4977533;28;1126;-29
2022/10/27 07:16:26;;;;;;;;;;;;;;;26.08;32.89;101901.09;4977415;28;1244;-29
2022/10/27 07:18:51;;;;;;;;;;;;;;;26.09;32.65;101906.31;4968531;28;2212;-30
2022/10/27 07:21:17;;;;;;;;;;;;;;;26.16;32.66;101904.75;4987683;28;2134;-32
2022/10/27 07:23:42;;;;;;;;;;;;;;;26.16;33.08;101917.38;4986388;28;1832;-28
2022/10/27 07:26:07;;;;;;;;;;;;;;;26.14;32.33;101911.31;4977387;28;1207;-30
2022/10/27 07:28:33;;;;;;;;;;;;;;;26.19;32.77;101913.56;4977293;28;1243;-29
2022/10/27 07:30:58;;;;;;;;;;;;;;;25.93;30.52;101906.97;4977015;28;1972;-28
2022/10/27 07:33:23;;;;;;;;;;;;;;;25.70;30.61;101909.16;4964007;28;1189;-30
2022/10/27 07:35:52;;;;;;;;;;;;;;;25.88;30.27;101914.63;4979028;28;1228;-30
2022/10/27 07:38:17;;;;;;;;;;;;;;;26.28;30.73;101916.19;4983686;28;1109;-30
2022/10/27 07:40:42;;;;;;;;;;;;;;;26.44;31.32;101916.59;4983499;28;1219;-30
2022/10/27 07:43:08;;;;;;;;;;;;;;;26.68;31.30;101917.84;4984163;28;1184;-31
2022/10/27 07:45:33;;;;;;;;;;;;;;;26.28;29.94;101923.44;4986196;28;1042;-29
2022/10/27 07:47:58;;;;;;;;;;;;;;;26.49;29.47;101915.13;4979110;28;2335;-31
2022/10/27 07:50:26;;;;;;;;;;;;;;;26.75;30.39;101918.97;4984057;28;1908;-31
2022/10/27 07:52:52;;;;;;;;;;;;;;;26.73;30.94;101910.16;4992397;28;2462;-30
2022/10/27 07:55:18;;;;;;;;;;;;;;;26.92;30.63;101916.44;4999585;28;1971;-30
2022/10/27 07:57:43;;;;;;;;;;;;;;;27.08;30.90;101918.47;4994137;28;1832;-30
2022/10/27 08:00:10;;;;;;;;;;;;;;;27.32;31.22;101917.00;4995114;28;1780;-30
2022/10/27 08:02:35;;;;;;;;;;;;;;;27.01;31.32;101915.50;5001563;28;1950;-30
2022/10/27 08:05:00;;;;;;;;;;;;;;;27.42;30.81;101922.31;4984566;28;2211;-31
2022/10/27 08:07:26;;;;;;;;;;;;;;;27.31;30.73;101918.84;4983335;28;1082;-31
2022/10/27 08:09:51;;;;;;;;;;;;;;;27.24;30.67;101924.03;4992409;28;1961;-30
2022/10/27 08:12:16;;;;;;;;;;;;;;;27.22;30.63;101920.66;4982919;28;1130;-30
2022/10/27 08:14:41;;;;;;;;;;;;;;;27.31;30.78;101918.84;4983038;28;1117;-31
2022/10/27 08:17:07;;;;;;;;;;;;;;;27.61;30.49;101932.09;4982914;28;1153;-30
2022/10/27 08:19:32;;;;;;;;;;;;;;;27.38;30.94;101928.03;4983109;28;1200;-29
2022/10/27 08:21:57;;;;;;;;;;;;;;;27.37;29.64;101928.19;4989765;28;1232;-29
2022/10/27 08:24:24;;;;;;;;;;;;;;;27.33;30.18;101937.59;4983712;28;1220;-30
2022/10/27 08:26:49;;;;;;;;;;;;;;;27.20;30.37;101930.75;4982952;28;1161;-30
2022/10/27 08:29:14;;;;;;;;;;;;;;;27.16;30.36;101925.81;4982926;28;1906;-30
2022/10/27 08:31:40;;;;;;;;;;;;;;;26.76;30.20;101929.59;4983258;28;1133;-29
2022/10/27 08:34:05;;;;;;;;;;;;;;;26.20;30.96;101928.72;4988784;28;1894;-29
2022/10/27 08:36:37;;;;;;;;;;;;;;;26.19;31.19;101935.97;4983428;28;1121;-29
2022/10/27 08:39:03;;;;;;;;;;;;;;;26.36;30.41;101925.44;4983199;28;1094;-29
2022/10/27 08:41:37;;;;;;;;;;;;;;;26.30;30.28;101929.53;4983743;28;1109;-30
2022/10/27 08:44:10;;;;;;;;;;;;;;;26.61;30.20;101923.88;4982702;28;1228;-29
2022/10/27 08:46:35;;;;;;;;;;;;;;;26.92;29.93;101929.94;4970655;28;883;-30
2022/10/27 08:49:02;;;;;;;;;;;;;;;26.99;29.63;101931.03;4978483;28;1963;-31
2022/10/27 08:51:27;;;;;;;;;;;;;;;27.24;29.08;101929.41;4979867;28;1113;-30
2022/10/27 08:53:53;;;;;;;;;;;;;;;27.51;29.24;101929.47;4962477;28;1134;-29
2022/10/27 08:56:18;;;;;;;;;;;;;;;26.89;30.20;101942.72;4980247;28;1181;-30
2022/10/27 08:58:44;;;;;;;;;;;;;;;26.96;29.46;101929.47;4983773;28;871;-29
2022/10/27 09:01:09;;;;;;;;;;;;;;;26.98;29.06;101929.31;4979598;28;1153;-30
2022/10/27 09:03:35;;;;;;;;;;;;;;;26.56;29.86;101930.72;4979532;28;1753;-29
2022/10/27 09:06:07;;;;;;;;;;;;;;;26.47;30.05;101924.38;4979534;28;1086;-29
2022/10/27 09:08:35;;;;;;;;;;;;;;;27.49;28.97;101934.19;4979574;28;1101;-29
2022/10/27 09:11:12;;;;;;;;;;;;;;;27.72;28.52;101929.16;4981843;28;1973;-31
2022/10/27 09:13:43;;;;;;;;;;;;;;;27.79;28.73;101940.19;4949816;28;1048;-30
2022/10/27 09:16:11;;;;;;;;;;;;;;;27.43;29.08;101924.84;4979432;28;1129;-31
2022/10/27 09:18:38;;;;;;;;;;;;;;;27.51;28.76;101924.91;4979482;28;1149;-30
2022/10/27 09:21:05;;;;;;;;;;;;;;;27.45;29.31;101919.28;4979329;28;1216;-30
2022/10/27 09:23:35;;;;;;;;;;;;;;;27.31;30.35;101936.94;4959415;28;1128;-30
2022/10/27 09:26:00;;;;;;;;;;;;;;;27.16;30.50;101928.53;4958954;28;1158;-30
2022/10/27 09:28:55;;;;;;;;;;;;;;;27.02;30.37;101925.34;4960020;28;1153;-30
2022/10/27 09:31:22;;;;;;;;;;;;;;;27.32;29.68;101933.22;4955282;28;1376;-29
2022/10/27 09:34:13;;;;;;;;;;;;;;;27.24;30.18;101934.00;4962502;28;2385;-29
2022/10/27 09:36:39;;;;;;;;;;;;;;;27.26;30.27;101924.72;4953197;28;1197;-30
2022/10/27 09:39:04;;;;;;;;;;;;;;;27.22;30.47;101922.50;4959805;28;1168;-29
2022/10/27 09:41:29;;;;;;;;;;;;;;;27.05;31.41;101925.03;4959700;28;1070;-29
2022/10/27 09:43:55;;;;;;;;;;;;;;;27.11;31.84;101918.19;4959794;28;1173;-29
2022/10/27 09:46:22;;;;;;;;;;;;;;;27.21;32.32;101927.03;4966272;28;1169;-29
2022/10/27 09:48:47;;;;;;;;;;;;;;;26.99;33.25;101921.06;4963216;28;1899;-29
2022/10/27 09:51:22;;;;;;;;;;;;;;;27.08;33.16;101921.16;4959681;28;1094;-29
2022/10/27 09:53:49;;;;;;;;;;;;;;;26.85;33.00;101913.50;4958101;28;1563;-29
2022/10/27 09:56:24;;;;;;;;;;;;;;;27.21;32.46;101910.81;4959533;28;1101;-29
2022/10/27 09:58:57;;;;;;;;;;;;;;;26.65;33.89;101910.94;4958520;28;812;-29
2022/10/27 10:01:26;;;;;;;;;;;;;;;26.45;34.35;101905.66;4958295;28;1166;-29
2022/10/27 10:03:53;;;;;;;;;;;;;;;26.63;34.84;101910.22;4958104;28;1808;-29
2022/10/27 10:06:29;;;;;;;;;;;;;;;26.65;34.97;101909.09;4959368;28;1196;-29
2022/10/27 10:08:55;;;;;;;;;;;;;;;26.92;34.27;101908.34;4958490;28;1911;-29
2022/10/27 10:11:21;;;;;;;;;;;;;;;26.69;35.43;101908.78;4970091;28;1118;-29
2022/10/27 10:14:02;;;;;;;;;;;;;;;26.65;35.20;101909.09;4959520;28;1101;-29
2022/10/27 10:16:28;;;;;;;;;;;;;;;26.65;35.51;101909.09;4958802;28;1141;-30
2022/10/27 10:18:56;;;;;;;;;;;;;;;26.50;35.57;101906.06;4959158;28;1133;-28
2022/10/27 10:21:21;;;;;;;;;;;;;;;26.32;35.96;101905.13;4958902;28;1247;-30
2022/10/27 10:23:46;;;;;;;;;;;;;;;27.29;34.45;101910.06;4985986;28;1060;-32
2022/10/27 10:26:25;;;;;;;;;;;;;;;27.93;33.44;101902.75;4978322;28;1113;-32
2022/10/27 10:28:51;;;;;;;;;;;;;;;28.22;32.61;101902.41;4964894;28;1906;-33
2022/10/27 10:31:21;;;;;;;;;;;;;;;27.20;35.05;101906.44;4978154;28;1125;-31
2022/10/27 10:33:46;;;;;;;;;;;;;;;27.92;34.42;101892.94;4961091;28;2237;-31
2022/10/27 10:36:16;;;;;;;;;;;;;;;27.31;34.93;101897.22;4986758;28;1149;-30
2022/10/27 10:38:41;;;;;;;;;;;;;;;27.65;34.91;101900.16;4977782;28;1141;-30
2022/10/27 10:41:15;;;;;;;;;;;;;;;28.21;33.91;101903.38;4960779;28;1450;-30
2022/10/27 10:43:40;;;;;;;;;;;;;;;27.70;35.28;101896.03;4977752;28;1050;-31
2022/10/27 10:46:10;;;;;;;;;;;;;;;28.14;34.47;101898.78;4963023;28;1131;-31
2022/10/27 10:48:41;;;;;;;;;;;;;;;27.30;35.65;101895.53;4965330;28;1502;-30
2022/10/27 10:51:09;;;;;;;;;;;;;;;27.45;36.01;101890.44;4977715;28;1958;-29
2022/10/27 10:53:41;;;;;;;;;;;;;;;27.09;36.38;101883.19;4960711;28;1122;-30
2022/10/27 10:56:26;;;;;;;;;;;;;;;26.87;36.86;101889.91;4977894;28;1126;-29
2022/10/27 10:59:02;;;;;;;;;;;;;;;27.27;36.76;101887.75;4967465;28;1106;-29
2022/10/27 11:01:57;;;;;;;;;;;;;;;27.38;36.65;101883.94;4978799;28;1137;-29
2022/10/27 11:04:23;;;;;;;;;;;;;;;27.34;36.34;101888.81;4968657;28;2285;-31
2022/10/27 11:06:59;;;;;;;;;;;;;;;27.25;37.06;101887.06;4960461;28;1209;-29
2022/10/27 11:09:25;;;;;;;;;;;;;;;26.82;37.53;101876.88;4977403;28;1953;-29
2022/10/27 11:11:51;;;;;;;;;;;;;;;27.04;37.09;101873.88;4967964;28;951;-29
2022/10/27 11:14:18;;;;;;;;;;;;;;;26.69;38.12;101876.38;4977149;28;1090;-30
2022/10/27 11:16:45;;;;;;;;;;;;;;;26.85;37.70;101876.56;4960367;28;1185;-31
2022/10/27 11:19:14;;;;;;;;;;;;;;;27.54;36.54;101863.47;4959557;28;1169;-30
2022/10/27 11:21:52;;;;;;;;;;;;;;;27.72;36.40;101861.59;4960182;28;1142;-30
2022/10/27 11:24:19;;;;;;;;;;;;;;;27.52;36.63;101863.63;4984288;28;936;-30
2022/10/27 11:26:53;;;;;;;;;;;;;;;26.70;38.49;101860.03;4977091;28;1134;-30
2022/10/27 11:29:20;;;;;;;;;;;;;;;26.65;38.56;101865.91;4976947;28;1969;-30
2022/10/27 11:32:04;;;;;;;;;;;;;;;26.54;38.61;101868.81;4977091;28;1133;-30
2022/10/27 11:34:35;;;;;;;;;;;;;;;26.40;39.53;101868.34;4979922;28;2097;-30
2022/10/27 11:37:03;;;;;;;;;;;;;;;26.24;39.36;101865.41;4979377;28;1161;-30
2022/10/27 11:39:29;;;;;;;;;;;;;;;26.32;39.20;101860.13;4977009;28;1058;-30
2022/10/27 11:41:57;;;;;;;;;;;;;;;26.35;39.47;101865.22;4977304;28;1228;-29
2022/10/27 11:44:49;;;;;;;;;;;;;;;26.16;40.04;101863.44;4960357;28;1126;-31
2022/10/27 11:47:25;;;;;;;;;;;;;;;26.75;38.20;101870.38;4965531;28;1402;-28
2022/10/27 11:49:53;;;;;;;;;;;;;;;27.08;37.15;101873.41;4959779;28;1963;-30
2022/10/27 11:52:37;;;;;;;;;;;;;;;27.27;36.58;101871.53;4976885;28;1110;-31
2022/10/27 11:55:03;;;;;;;;;;;;;;;27.42;36.28;101879.06;4976757;28;1154;-31
2022/10/27 11:57:34;;;;;;;;;;;;;;;27.47;36.18;101879.47;4959773;28;1197;-29
2022/10/27 12:00:15;;;;;;;;;;;;;;;27.46;36.35;101878.59;4982932;28;944;-30
2022/10/27 12:03:03;;;;;;;;;;;;;;;27.68;36.06;101873.72;4967696;28;1134;-30
2022/10/27 12:05:44;;;;;;;;;;;;;;;27.71;35.87;101872.56;4956008;28;1241;-32
2022/10/27 12:08:21;;;;;;;;;;;;;;;27.62;36.23;101874.31;4969528;28;1122;-29
2022/10/27 12:10:46;;;;;;;;;;;;;;;27.73;35.94;101871.38;4961734;28;2069;-29
2022/10/27 12:13:14;;;;;;;;;;;;;;;27.96;35.68;101870.81;4984639;28;1082;-29
2022/10/27 12:15:50;;;;;;;;;;;;;;;28.17;35.21;101869.56;4969149;28;1185;-28
2022/10/27 12:18:27;;;;;;;;;;;;;;;28.43;34.50;101876.78;4967110;28;1142;-31
2022/10/27 12:20:52;;;;;;;;;;;;;;;28.17;34.87;101871.41;4966128;28;1220;-31
2022/10/27 12:23:20;;;;;;;;;;;;;;;28.05;34.76;101874.41;4969292;28;1300;-31
2022/10/27 12:25:47;;;;;;;;;;;;;;;28.03;34.98;101876.44;4979866;28;1194;-31
2022/10/27 12:28:13;;;;;;;;;;;;;;;27.97;34.66;101883.34;4963009;28;1297;-29
2022/10/27 12:30:41;;;;;;;;;;;;;;;27.96;34.42;101884.34;4962570;28;1962;-29
2022/10/27 12:33:29;;;;;;;;;;;;;;;28.11;34.63;101875.63;4980176;28;2398;-30
2022/10/27 12:36:00;;;;;;;;;;;;;;;28.37;34.07;101880.16;4976002;28;1589;-29
2022/10/27 12:38:32;;;;;;;;;;;;;;;28.45;33.68;101885.59;4962809;28;1178;-30
2022/10/27 12:41:06;;;;;;;;;;;;;;;28.63;33.45;101881.91;4979758;28;1194;-29
2022/10/27 12:43:33;;;;;;;;;;;;;;;28.88;33.22;101887.34;4980082;28;1178;-30
2022/10/27 12:46:07;;;;;;;;;;;;;;;28.78;33.20;101892.09;4980075;28;1106;-32
2022/10/27 12:48:34;;;;;;;;;;;;;;;28.33;34.00;101878.78;4980350;28;1202;-31
2022/10/27 12:51:03;;;;;;;;;;;;;;;28.28;33.98;101881.94;4962259;28;1967;-32